createdAt,value
2018-08-07T00:00:23.107Z,22.51
2018-08-07T00:02:52.640Z,22.61
2018-08-07T00:05:21.609Z,22.53
2018-08-07T00:08:06.713Z,22.56
2018-08-07T00:13:55.790Z,22.67
2018-08-07T00:16:25.912Z,22.21
2018-08-07T00:18:55.079Z,22.43
2018-08-07T00:21:24.293Z,22.26
2018-08-07T00:23:53.320Z,22.16
2018-08-07T00:26:22.452Z,22.18
2018-08-07T00:28:51.481Z,22.30
2018-08-07T00:31:20.364Z,22.24
2018-08-07T00:33:49.459Z,22.30
2018-08-07T00:36:18.365Z,22.08
2018-08-07T00:38:47.517Z,22.17
2018-08-07T00:41:16.752Z,22.08
2018-08-07T00:43:45.829Z,22.15
2018-08-07T00:46:15.855Z,21.99
2018-08-07T00:48:44.837Z,22.09
2018-08-07T00:51:13.903Z,21.97
2018-08-07T00:53:42.986Z,21.98
2018-08-07T00:56:12.079Z,21.88
2018-08-07T00:58:40.997Z,21.94
2018-08-07T01:01:10.093Z,21.73
2018-08-07T01:03:38.897Z,21.82
2018-08-07T01:06:07.879Z,22.02
2018-08-07T01:08:37.681Z,21.87
2018-08-07T01:11:06.929Z,21.76
2018-08-07T01:13:35.831Z,21.80
2018-08-07T01:16:04.781Z,21.75
2018-08-07T01:18:33.685Z,21.85
2018-08-07T01:21:03.420Z,21.73
2018-08-07T01:23:32.550Z,21.61
2018-08-07T01:26:01.486Z,21.59
2018-08-07T01:28:30.459Z,21.63
2018-08-07T01:30:59.438Z,21.49
2018-08-07T01:33:29.640Z,21.68
2018-08-07T01:35:58.620Z,21.55
2018-08-07T01:38:27.731Z,21.72
2018-08-07T01:40:56.705Z,21.63
2018-08-07T01:43:25.724Z,21.43
2018-08-07T01:45:54.920Z,21.25
2018-08-07T01:48:40.355Z,21.34
2018-08-07T01:58:03.399Z,21.12
2018-08-07T02:00:32.480Z,20.97
2018-08-07T02:03:01.595Z,21.04
2018-08-07T02:05:30.496Z,20.97
2018-08-07T02:07:59.473Z,20.98
2018-08-07T02:10:28.395Z,20.95
2018-08-07T02:12:57.524Z,20.95
2018-08-07T02:15:26.822Z,20.88
2018-08-07T02:17:55.839Z,21.02
2018-08-07T02:20:24.822Z,21.14
2018-08-07T02:22:53.811Z,20.89
2018-08-07T02:25:22.707Z,20.83
2018-08-07T02:27:51.838Z,20.74
2018-08-07T02:30:20.860Z,20.87
2018-08-07T02:32:49.918Z,20.93
2018-08-07T02:35:19.096Z,20.94
2018-08-07T02:37:48.383Z,21.11
2018-08-07T02:40:17.966Z,20.83
2018-08-07T02:42:47.829Z,20.67
2018-08-07T02:45:18.857Z,20.86
2018-08-07T02:47:48.535Z,20.75
2018-08-07T02:50:19.366Z,20.87
2018-08-07T02:52:48.320Z,20.81
2018-08-07T02:55:17.430Z,20.79
2018-08-07T02:57:46.816Z,20.43
2018-08-07T03:00:18.406Z,20.61
2018-08-07T03:02:47.748Z,20.64
2018-08-07T03:05:17.515Z,20.77
2018-08-07T03:07:47.240Z,20.71
2018-08-07T03:10:16.260Z,20.69
2018-08-07T03:12:45.317Z,20.59
2018-08-07T03:15:16.705Z,20.75
2018-08-07T03:17:46.636Z,20.62
2018-08-07T03:20:15.944Z,20.67
2018-08-07T03:22:46.377Z,20.62
2018-08-07T03:25:15.720Z,20.71
2018-08-07T03:27:45.483Z,20.72
2018-08-07T03:30:16.411Z,20.51
2018-08-07T03:32:45.802Z,20.71
2018-08-07T03:35:14.733Z,20.49
2018-08-07T03:37:43.912Z,20.50
2018-08-07T03:40:16.373Z,20.63
2018-08-07T03:42:45.567Z,20.58
2018-08-07T03:45:15.511Z,20.55
2018-08-07T03:47:45.561Z,20.45
2018-08-07T03:50:14.693Z,20.36
2018-08-07T03:52:43.760Z,20.54
2018-08-07T03:55:14.899Z,20.20
2018-08-07T03:57:44.764Z,20.24
2018-08-07T04:00:18.284Z,20.44
2018-08-07T04:02:47.582Z,20.25
2018-08-07T04:05:17.430Z,20.30
2018-08-07T04:07:46.888Z,20.34
2018-08-07T04:10:17.647Z,20.42
2018-08-07T04:12:47.731Z,20.26
2018-08-07T04:15:18.037Z,20.24
2018-08-07T04:17:46.974Z,20.30
2018-08-07T04:20:17.465Z,20.27
2018-08-07T04:22:46.537Z,20.30
2018-08-07T04:25:15.656Z,20.17
2018-08-07T04:27:44.713Z,20.19
2018-08-07T04:30:15.695Z,20.39
2018-08-07T04:32:45.081Z,20.37
2018-08-07T04:35:14.931Z,20.23
2018-08-07T04:37:44.885Z,20.34
2018-08-07T04:40:13.964Z,20.34
2018-08-07T04:42:43.237Z,20.24
2018-08-07T04:45:19.370Z,20.25
2018-08-07T04:47:48.873Z,20.30
2018-08-07T04:50:18.615Z,20.25
2018-08-07T04:52:47.960Z,20.30
2018-08-07T04:55:17.003Z,20.28
2018-08-07T04:57:46.068Z,20.40
2018-08-07T05:00:18.307Z,20.33
2018-08-07T05:02:48.179Z,20.33
2018-08-07T05:05:17.698Z,20.35
2018-08-07T05:07:46.821Z,20.31
2018-08-07T05:10:17.036Z,20.38
2018-08-07T05:12:46.651Z,20.34
2018-08-07T05:15:15.894Z,20.57
2018-08-07T05:17:46.122Z,20.50
2018-08-07T05:20:15.246Z,20.53
2018-08-07T05:22:44.213Z,20.59
2018-08-07T05:25:14.019Z,20.79
2018-08-07T05:27:42.983Z,20.81
2018-08-07T05:30:14.119Z,20.90
2018-08-07T05:32:43.470Z,20.95
2018-08-07T05:35:14.151Z,20.99
2018-08-07T05:37:43.129Z,20.93
2018-08-07T05:40:12.280Z,21.03
2018-08-07T05:42:41.580Z,21.11
2018-08-07T05:45:13.186Z,21.17
2018-08-07T05:47:42.327Z,21.25
2018-08-07T05:50:13.893Z,21.25
2018-08-07T05:52:42.857Z,21.26
2018-08-07T05:55:11.953Z,21.31
2018-08-07T05:57:40.813Z,21.24
2018-08-07T06:00:12.692Z,21.36
2018-08-07T06:02:41.702Z,21.37
2018-08-07T06:05:10.948Z,21.42
2018-08-07T06:07:39.936Z,21.48
2018-08-07T06:10:10.652Z,21.47
2018-08-07T06:12:39.642Z,21.51
2018-08-07T06:15:12.136Z,21.54
2018-08-07T06:17:41.972Z,21.59
2018-08-07T06:20:11.486Z,21.70
2018-08-07T06:22:40.465Z,21.72
2018-08-07T06:25:10.338Z,21.76
2018-08-07T06:27:39.552Z,21.85
2018-08-07T06:30:10.793Z,21.82
2018-08-07T06:32:39.844Z,21.85
2018-08-07T06:35:09.121Z,21.87
2018-08-07T06:37:38.195Z,21.89
2018-08-07T06:40:08.643Z,21.96
2018-08-07T06:42:37.872Z,22.03
2018-08-07T06:45:07.932Z,22.11
2018-08-07T06:47:37.262Z,22.14
2018-08-07T06:50:10.673Z,22.25
2018-08-07T06:52:39.769Z,22.43
2018-08-07T06:55:09.367Z,22.38
2018-08-07T06:57:38.353Z,22.39
2018-08-07T07:00:11.279Z,22.56
2018-08-07T07:02:40.641Z,22.58
2018-08-07T07:05:09.607Z,22.75
2018-08-07T07:07:38.857Z,22.64
2018-08-07T07:10:09.044Z,22.73
2018-08-07T07:12:38.058Z,22.84
2018-08-07T07:15:08.349Z,22.80
2018-08-07T07:17:37.617Z,23.07
2018-08-07T07:20:08.694Z,22.98
2018-08-07T07:22:37.620Z,23.04
2018-08-07T07:25:07.243Z,23.08
2018-08-07T07:27:36.076Z,23.29
2018-08-07T07:30:08.509Z,23.20
2018-08-07T07:32:37.434Z,23.26
2018-08-07T07:35:06.280Z,23.51
2018-08-07T07:37:35.413Z,23.45
2018-08-07T07:40:05.037Z,23.58
2018-08-07T07:42:33.940Z,23.89
2018-08-07T07:45:02.910Z,23.59
2018-08-07T07:47:31.772Z,24.08
2018-08-07T07:50:00.653Z,23.81
2018-08-07T07:52:29.687Z,23.70
2018-08-07T07:54:58.498Z,24.04
2018-08-07T07:57:27.317Z,24.36
2018-08-07T07:59:56.369Z,24.72
2018-08-07T08:02:25.208Z,24.47
2018-08-07T08:04:54.055Z,24.59
2018-08-07T08:07:22.975Z,24.55
2018-08-07T08:09:51.793Z,24.38
2018-08-07T08:12:20.654Z,24.73
2018-08-07T08:14:49.654Z,24.88
2018-08-07T08:17:18.506Z,25.08
2018-08-07T08:19:47.456Z,25.13
2018-08-07T08:22:16.620Z,25.03
2018-08-07T08:24:45.643Z,25.30
2018-08-07T08:27:14.492Z,25.57
2018-08-07T08:29:43.425Z,25.73
2018-08-07T08:32:12.703Z,25.90
2018-08-07T08:34:41.657Z,25.51
2018-08-07T08:37:10.738Z,25.87
2018-08-07T08:39:40.287Z,26.13
2018-08-07T08:42:09.396Z,26.15
2018-08-07T08:44:38.428Z,26.49
2018-08-07T08:47:07.394Z,26.10
2018-08-07T08:49:36.216Z,26.25
2018-08-07T08:52:05.246Z,26.83
2018-08-07T08:54:34.113Z,26.46
2018-08-07T08:57:04.141Z,26.22
2018-08-07T08:59:33.083Z,26.50
2018-08-07T09:02:01.974Z,26.64
2018-08-07T09:04:30.941Z,26.75
2018-08-07T09:06:59.871Z,26.84
2018-08-07T09:09:28.768Z,26.95
2018-08-07T09:12:01.568Z,26.50
2018-08-07T09:14:30.442Z,26.71
2018-08-07T09:16:59.390Z,27.13
2018-08-07T09:19:30.088Z,27.21
2018-08-07T09:22:00.474Z,27.44
2018-08-07T09:24:29.404Z,27.35
2018-08-07T09:26:59.193Z,28.32
2018-08-07T09:29:36.720Z,28.34
2018-08-07T09:32:06.079Z,27.39
2018-08-07T09:34:36.513Z,28.42
2018-08-07T09:37:05.380Z,28.30
2018-08-07T09:39:34.369Z,27.68
2018-08-07T09:42:05.316Z,28.58
2018-08-07T09:44:34.238Z,28.73
2018-08-07T09:47:03.145Z,28.21
2018-08-07T09:49:33.219Z,28.75
2018-08-07T09:52:03.105Z,29.45
2018-08-07T09:54:32.018Z,28.27
2018-08-07T09:57:05.745Z,29.01
2018-08-07T09:59:34.694Z,28.94
2018-08-07T10:02:08.862Z,28.46
2018-08-07T10:04:37.807Z,28.77
2018-08-07T10:07:06.725Z,28.74
2018-08-07T10:09:35.589Z,28.19
2018-08-07T10:12:04.672Z,28.73
2018-08-07T10:14:33.511Z,28.56
2018-08-07T10:17:02.377Z,28.84
2018-08-07T10:19:31.285Z,28.88
2018-08-07T10:22:00.104Z,29.48
2018-08-07T10:24:28.945Z,29.43
2018-08-07T10:26:58.905Z,29.33
2018-08-07T10:29:27.872Z,28.96
2018-08-07T10:31:56.704Z,29.53
2018-08-07T10:34:28.559Z,29.13
2018-08-07T10:36:57.545Z,28.79
2018-08-07T10:39:26.721Z,28.93
2018-08-07T10:41:55.637Z,29.48
2018-08-07T10:44:24.564Z,29.82
2018-08-07T10:46:53.753Z,30.21
2018-08-07T10:49:23.904Z,30.44
2018-08-07T10:51:52.829Z,29.84
2018-08-07T10:54:21.813Z,29.78
2018-08-07T10:56:50.645Z,29.45
2018-08-07T10:59:19.462Z,30.27
2018-08-07T11:01:48.410Z,30.00
2018-08-07T11:04:17.307Z,30.02
2018-08-07T11:06:46.607Z,30.40
2018-08-07T11:09:16.257Z,30.33
2018-08-07T11:11:45.184Z,30.12
2018-08-07T11:14:14.104Z,30.33
2018-08-07T11:16:43.129Z,30.97
2018-08-07T11:19:11.988Z,31.00
2018-08-07T11:21:40.793Z,30.41
2018-08-07T11:24:09.743Z,31.30
2018-08-07T11:26:38.588Z,31.49
2018-08-07T11:29:07.710Z,31.51
2018-08-07T11:31:36.711Z,31.50
2018-08-07T11:34:05.608Z,31.60
2018-08-07T11:36:34.441Z,31.90
2018-08-07T11:39:03.441Z,31.75
2018-08-07T11:41:32.262Z,31.78
2018-08-07T11:44:01.098Z,32.08
2018-08-07T11:46:30.036Z,31.91
2018-08-07T11:48:59.015Z,31.64
2018-08-07T11:51:27.921Z,31.53
2018-08-07T11:53:56.997Z,32.01
2018-08-07T11:56:26.165Z,31.70
2018-08-07T11:58:54.930Z,31.50
2018-08-07T12:01:23.829Z,31.56
2018-08-07T12:03:53.715Z,32.02
2018-08-07T12:06:24.528Z,32.43
2018-08-07T12:08:56.892Z,31.98
2018-08-07T12:11:41.927Z,32.24
2018-08-07T12:14:12.368Z,31.99
2018-08-07T12:16:47.696Z,32.55
2018-08-07T12:19:40.558Z,32.89
2018-08-07T12:22:31.464Z,32.70
2018-08-07T12:25:45.317Z,32.65
2018-08-07T12:28:32.330Z,32.09
2018-08-07T12:40:25.192Z,32.79
2018-08-07T12:58:26.213Z,32.90
2018-08-07T13:01:17.821Z,33.40
2018-08-07T13:04:14.943Z,33.28
2018-08-07T13:07:42.309Z,33.04
2018-08-07T13:23:54.905Z,33.08
2018-08-07T13:26:25.842Z,32.96
2018-08-07T13:28:55.645Z,33.21
2018-08-07T13:31:25.224Z,33.37
2018-08-07T13:33:54.703Z,33.19
2018-08-07T13:36:24.323Z,33.01
2018-08-07T13:38:53.155Z,33.07
2018-08-07T13:41:21.990Z,33.03
2018-08-07T13:43:51.253Z,32.84
2018-08-07T13:46:21.195Z,32.73
2018-08-07T13:48:51.448Z,32.53
2018-08-07T13:51:25.028Z,32.88
2018-08-07T13:53:53.927Z,33.38
2018-08-07T13:56:22.769Z,33.48
2018-08-07T13:58:51.700Z,33.80
2018-08-07T14:01:21.796Z,34.13
2018-08-07T14:03:53.729Z,33.66
2018-08-07T14:06:24.073Z,33.78
2018-08-07T14:08:53.101Z,33.80
2018-08-07T14:11:22.029Z,34.18
2018-08-07T14:13:51.640Z,34.29
2018-08-07T14:16:21.221Z,33.97
2018-08-07T14:18:51.130Z,34.15
2018-08-07T14:21:19.961Z,34.17
2018-08-07T14:23:48.948Z,34.15
2018-08-07T14:26:19.961Z,34.28
2018-08-07T14:28:48.885Z,34.23
2018-08-07T14:31:18.444Z,34.31
2018-08-07T14:33:47.290Z,34.26
2018-08-07T14:36:17.225Z,34.81
2018-08-07T14:38:46.154Z,34.83
2018-08-07T14:41:15.849Z,34.62
2018-08-07T14:43:45.522Z,34.66
2018-08-07T14:46:14.418Z,35.00
2018-08-07T14:48:43.342Z,34.58
2018-08-07T14:51:13.298Z,35.02
2018-08-07T14:53:42.700Z,34.78
2018-08-07T14:56:12.532Z,35.09
2018-08-07T14:58:42.468Z,35.19
2018-08-07T15:01:11.504Z,35.12
2018-08-07T15:03:40.345Z,35.22
2018-08-07T15:06:10.273Z,35.02
2018-08-07T15:08:39.200Z,34.87
2018-08-07T15:11:08.255Z,34.43
2018-08-07T15:13:38.411Z,34.13
2018-08-07T15:16:07.365Z,34.10
2018-08-07T15:18:36.204Z,34.02
2018-08-07T15:21:05.067Z,34.34
2018-08-07T15:23:34.751Z,34.45
2018-08-07T15:26:04.632Z,34.74
2018-08-07T15:28:34.321Z,34.84
2018-08-07T15:31:04.163Z,34.69
2018-08-07T15:33:33.278Z,34.29
2018-08-07T15:36:03.341Z,34.40
2018-08-07T15:38:33.316Z,34.75
2018-08-07T15:41:02.110Z,34.78
2018-08-07T15:43:31.117Z,34.32
2018-08-07T15:46:00.109Z,34.70
2018-08-07T15:48:29.016Z,34.88
2018-08-07T15:50:57.938Z,34.95
2018-08-07T15:53:27.754Z,34.78
2018-08-07T15:55:57.672Z,34.39
2018-08-07T15:58:26.770Z,34.16
2018-08-07T16:01:02.857Z,34.01
2018-08-07T16:03:32.532Z,34.03
2018-08-07T16:06:03.052Z,34.04
2018-08-07T16:08:33.191Z,34.37
2018-08-07T16:11:04.485Z,34.30
2018-08-07T16:13:34.650Z,34.56
2018-08-07T16:16:04.116Z,34.58
2018-08-07T16:18:33.926Z,34.66
2018-08-07T16:21:05.119Z,34.55
2018-08-07T16:23:35.192Z,34.59
2018-08-07T16:26:05.994Z,34.69
2018-08-07T16:28:39.661Z,34.66
2018-08-07T16:31:12.090Z,34.19
2018-08-07T16:33:49.794Z,34.33
2018-08-07T16:36:20.369Z,34.37
2018-08-07T16:38:50.640Z,34.31
2018-08-07T16:41:27.731Z,34.45
2018-08-07T16:43:58.647Z,34.27
2018-08-07T16:46:34.066Z,34.52
2018-08-07T16:49:07.083Z,34.60
2018-08-07T16:51:38.832Z,34.36
2018-08-07T16:54:15.440Z,34.17
2018-08-07T16:56:51.481Z,34.15
2018-08-07T16:59:23.921Z,34.08
2018-08-07T17:01:54.787Z,34.18
2018-08-07T17:04:35.327Z,34.13
2018-08-07T17:07:10.076Z,34.16
2018-08-07T17:09:53.927Z,34.09
2018-08-07T17:12:39.556Z,34.09
2018-08-07T17:15:15.119Z,34.08
2018-08-07T17:17:44.497Z,34.15
2018-08-07T17:20:17.033Z,34.06
2018-08-07T17:22:46.057Z,34.08
2018-08-07T17:25:16.573Z,34.10
2018-08-07T17:27:46.268Z,34.04
2018-08-07T17:30:20.943Z,34.08
2018-08-07T17:32:53.172Z,34.03
2018-08-07T17:35:29.459Z,34.01
2018-08-07T17:38:01.284Z,33.95
2018-08-07T17:40:31.667Z,33.94
2018-08-07T17:43:01.278Z,33.79
2018-08-07T17:45:30.141Z,33.78
2018-08-07T17:48:05.863Z,33.77
2018-08-07T17:50:38.255Z,33.72
2018-08-07T17:53:10.827Z,33.64
2018-08-07T17:55:39.634Z,33.63
2018-08-07T17:58:08.662Z,33.62
2018-08-07T18:00:47.624Z,33.51
2018-08-07T18:03:19.447Z,33.45
2018-08-07T18:05:53.827Z,33.36
2018-08-07T18:08:24.347Z,33.20
2018-08-07T18:10:55.274Z,33.18
2018-08-07T18:13:25.358Z,32.98
2018-08-07T18:15:58.755Z,32.90
2018-08-07T18:18:32.169Z,32.86
2018-08-07T18:21:01.875Z,32.85
2018-08-07T18:23:31.796Z,32.83
2018-08-07T18:26:01.843Z,32.84
2018-08-07T18:28:30.761Z,32.78
2018-08-07T18:31:02.593Z,32.58
2018-08-07T18:33:35.209Z,32.55
2018-08-07T18:36:04.144Z,32.48
2018-08-07T18:38:37.840Z,32.43
2018-08-07T18:41:08.639Z,32.22
2018-08-07T18:43:40.010Z,32.30
2018-08-07T18:46:09.487Z,32.10
2018-08-07T18:48:40.627Z,32.01
2018-08-07T18:51:12.019Z,32.02
2018-08-07T18:53:40.983Z,32.00
2018-08-07T18:56:10.021Z,31.96
2018-08-07T18:58:38.979Z,31.86
2018-08-07T19:01:08.145Z,31.82
2018-08-07T19:03:37.167Z,31.71
2018-08-07T19:06:06.069Z,31.67
2018-08-07T19:08:34.933Z,31.77
2018-08-07T19:11:10.683Z,31.57
2018-08-07T19:13:39.599Z,31.47
2018-08-07T19:16:08.500Z,31.32
2018-08-07T19:18:37.506Z,31.28
2018-08-07T19:21:06.577Z,31.12
2018-08-07T19:23:35.580Z,31.12
2018-08-07T19:26:04.627Z,31.35
2018-08-07T19:28:33.561Z,31.14
2018-08-07T19:31:02.538Z,31.30
2018-08-07T19:33:31.630Z,31.23
2018-08-07T19:36:00.551Z,31.11
2018-08-07T19:38:29.450Z,31.01
2018-08-07T19:40:58.567Z,30.77
2018-08-07T19:43:27.579Z,30.61
2018-08-07T19:45:57.210Z,30.63
2018-08-07T19:48:26.132Z,30.74
2018-08-07T19:50:55.645Z,30.73
2018-08-07T19:53:24.548Z,30.85
2018-08-07T19:55:54.280Z,30.84
2018-08-07T19:58:23.135Z,30.77
2018-08-07T20:00:52.199Z,30.74
2018-08-07T20:03:21.207Z,30.86
2018-08-07T20:05:50.087Z,31.04
2018-08-07T20:08:18.984Z,30.80
2018-08-07T20:10:48.197Z,30.79
2018-08-07T20:13:17.048Z,30.82
2018-08-07T20:15:45.963Z,30.82
2018-08-07T20:18:14.994Z,30.80
2018-08-07T20:20:43.940Z,30.81
2018-08-07T20:23:12.911Z,30.65
2018-08-07T20:25:41.897Z,30.64
2018-08-07T20:28:10.781Z,30.55
2018-08-07T20:30:39.689Z,30.65
2018-08-07T20:33:08.834Z,30.64
2018-08-07T20:35:38.382Z,30.45
2018-08-07T20:38:07.502Z,30.41
2018-08-07T20:40:36.459Z,30.44
2018-08-07T20:43:05.417Z,30.40
2018-08-07T20:45:34.324Z,30.40
2018-08-07T20:48:03.513Z,30.38
2018-08-07T20:50:32.412Z,30.20
2018-08-07T20:53:01.335Z,30.22
2018-08-07T20:55:30.315Z,30.05
2018-08-07T20:57:59.242Z,30.09
2018-08-07T21:00:28.788Z,30.19
2018-08-07T21:02:57.904Z,30.17
2018-08-07T21:05:27.510Z,30.11
2018-08-07T21:07:57.152Z,30.02
2018-08-07T21:10:27.484Z,30.04
2018-08-07T21:12:56.883Z,29.86
2018-08-07T21:15:26.601Z,29.91
2018-08-07T21:17:55.615Z,29.68
2018-08-07T21:20:26.069Z,29.67
2018-08-07T21:22:56.595Z,29.56
2018-08-07T21:25:25.841Z,29.26
2018-08-07T21:27:57.078Z,29.26
2018-08-07T21:30:28.472Z,29.30
2018-08-07T21:32:58.254Z,29.28
2018-08-07T21:35:33.064Z,29.13
2018-08-07T21:38:01.988Z,29.03
2018-08-07T21:40:30.900Z,28.88
2018-08-07T21:43:00.963Z,28.96
2018-08-07T21:45:29.872Z,28.82
2018-08-07T21:47:59.057Z,28.74
2018-08-07T21:50:29.225Z,28.63
2018-08-07T21:52:58.229Z,28.68
2018-08-07T21:55:27.389Z,28.55
2018-08-07T21:57:56.509Z,28.68
2018-08-07T22:00:36.623Z,28.60
2018-08-07T22:03:06.882Z,28.68
2018-08-07T22:05:40.886Z,28.50
2018-08-07T22:08:10.984Z,28.31
2018-08-07T22:10:39.964Z,28.34
2018-08-07T22:13:10.131Z,28.34
2018-08-07T22:15:40.607Z,28.14
2018-08-07T22:18:12.456Z,28.21
2018-08-07T22:20:43.283Z,27.96
2018-08-07T22:23:14.242Z,27.92
2018-08-07T22:25:49.849Z,27.74
2018-08-07T22:28:18.853Z,27.83
2018-08-07T22:30:48.353Z,27.86
2018-08-07T22:33:18.017Z,27.68
2018-08-07T22:35:47.906Z,27.58
2018-08-07T22:38:17.358Z,27.67
2018-08-07T22:40:47.315Z,27.57
2018-08-07T22:43:16.633Z,27.74
2018-08-07T22:45:45.994Z,27.54
2018-08-07T22:48:16.105Z,27.65
2018-08-07T22:50:46.029Z,27.67
2018-08-07T22:53:15.650Z,27.65
2018-08-07T22:55:45.163Z,27.52
2018-08-07T22:58:14.912Z,27.60
2018-08-07T23:00:44.895Z,27.64
2018-08-07T23:03:14.595Z,27.54
2018-08-07T23:05:44.282Z,27.41
2018-08-07T23:08:13.319Z,27.28
2018-08-07T23:10:42.225Z,27.22
2018-08-07T23:13:12.031Z,27.36
2018-08-07T23:15:41.519Z,27.40
2018-08-07T23:18:11.728Z,27.34
2018-08-07T23:20:43.151Z,27.23
2018-08-07T23:24:15.860Z,27.20
2018-08-07T23:26:59.019Z,27.20
2018-08-07T23:29:34.364Z,27.19
2018-08-07T23:32:04.424Z,27.08
2018-08-07T23:34:40.624Z,26.96
2018-08-07T23:37:12.567Z,27.03
2018-08-07T23:39:41.481Z,26.86
2018-08-07T23:42:10.410Z,27.05
2018-08-07T23:44:39.493Z,27.00
2018-08-07T23:47:08.393Z,26.87
2018-08-07T23:49:37.442Z,26.81
2018-08-07T23:52:06.406Z,26.90
2018-08-07T23:54:35.319Z,26.79
2018-08-07T23:57:04.392Z,26.70
2018-08-07T23:59:33.755Z,26.68
